Observations de surface / France / LFBD

Québec | Canada | États-Unis | France | UK | Europe | Ailleurs

Affichage: Infos & localisation pour LFBD | Aide pour décoder les METARs

LFBD BORDEAUX/MERIGNAC -- FR
Raw surface observations for station LFBD
LFBD 211700Z AUTO 11006KT CAVOK 09/01 Q1021 NOSIG=
LFBD 211630Z AUTO 12006KT CAVOK 10/01 Q1021 NOSIG=
LFBD 211600Z AUTO 11008KT CAVOK 11/01 Q1021 NOSIG=
LFBD 211530Z AUTO 11006KT CAVOK 11/01 Q1021 NOSIG=
LFBD 211500Z AUTO 10009KT 060V130 9999 FEW010 12/01 Q1021 NOSIG=
LFBD 211430Z AUTO 11008KT CAVOK 11/01 Q1021 NOSIG=
LFBD 211400Z AUTO 11009KT 080V140 CAVOK 11/01 Q1021 NOSIG=
LFBD 211330Z AUTO 10010KT CAVOK 11/01 Q1021 NOSIG=
LFBD 211300Z AUTO 09008KT CAVOK 10/00 Q1022 NOSIG=
LFBD 211230Z AUTO 10009KT CAVOK 10/00 Q1022 NOSIG=
LFBD 211200Z AUTO 08007KT 050V120 CAVOK 09/M01 Q1023 NOSIG=
LFBD 211130Z AUTO 09007KT CAVOK 08/M01 Q1023 NOSIG=
LFBD 211100Z AUTO 08004KT 9999 FEW014 07/M01 Q1024 NOSIG=
LFBD 211030Z AUTO 06004KT CAVOK 06/M02 Q1024 NOSIG=
LFBD 211000Z AUTO 07004KT 030V100 CAVOK 04/M02 Q1024 NOSIG=
LFBD 210930Z AUTO 04005KT CAVOK 03/M03 Q1024 NOSIG=
LFBD 210900Z AUTO 05004KT 360V090 CAVOK 02/M03 Q1023 NOSIG=
LFBD 210830Z AUTO 07004KT CAVOK 00/M03 Q1023 NOSIG=
LFBD 210800Z AUTO 04004KT CAVOK M00/M03 Q1023 NOSIG=
LFBD 210730Z AUTO 09003KT CAVOK M00/M04 Q1023 NOSIG=
LFBD 210700Z AUTO 06005KT 020V080 CAVOK M00/M04 Q1023 TEMPO 4000 BR=
LFBD 210630Z AUTO 05005KT CAVOK M00/M04 Q1023 TEMPO 4000 BR=
LFBD 210600Z AUTO 05004KT CAVOK 00/M03 Q1023 TEMPO 4000 BR=
LFBD 210530Z AUTO 06003KT 010V090 CAVOK 00/M03 Q1023 TEMPO 4000 BR=
LFBD 210500Z AUTO 06004KT CAVOK 00/M03 Q1023 TEMPO 4000 BR=
LFBD 210430Z AUTO 05007KT CAVOK 00/M03 Q1023 TEMPO 4000 BR=
LFBD 210400Z AUTO 04004KT CAVOK M00/M03 Q1023 NOSIG=
LFBD 210330Z AUTO VRB03KT CAVOK 01/M03 Q1024 NOSIG=
LFBD 210300Z AUTO 03004KT CAVOK 00/M03 Q1024 NOSIG=
LFBD 210230Z AUTO 05004KT CAVOK 01/M03 Q1024 NOSIG=
LFBD 210200Z AUTO 06002KT CAVOK 01/M03 Q1024 NOSIG=
LFBD 210130Z AUTO 06003KT 9999 FEW048 SCT060 02/M03 Q1024 NOSIG=
LFBD 210100Z AUTO 05004KT CAVOK 01/M03 Q1024 NOSIG=
LFBD 210030Z AUTO 07004KT CAVOK 02/M03 Q1024 NOSIG=
LFBD 210000Z AUTO 05006KT CAVOK 02/M02 Q1024 NOSIG=
LFBD 202330Z AUTO 07005KT CAVOK 02/M02 Q1024 NOSIG=
LFBD 202300Z AUTO 06006KT CAVOK 02/M02 Q1024 NOSIG=
LFBD 202230Z AUTO 06005KT CAVOK 03/M02 Q1025 NOSIG=
LFBD 202200Z AUTO 06005KT CAVOK 03/M02 Q1024 NOSIG=
LFBD 202130Z AUTO 06006KT CAVOK 04/M02 Q1024 NOSIG=
LFBD 202100Z AUTO 05006KT CAVOK 04/M01 Q1025 NOSIG=
LFBD 202030Z AUTO 06005KT 020V080 CAVOK 05/M01 Q1025 NOSIG=
LFBD 202000Z AUTO 06006KT CAVOK 05/M01 Q1025 NOSIG=
LFBD 201930Z AUTO 05007KT 020V080 CAVOK 05/M01 Q1025 NOSIG=
LFBD 201900Z AUTO 05006KT 9999 FEW011 05/M01 Q1025 NOSIG=
LFBD 201830Z AUTO 04006KT 9999 FEW015 05/M01 Q1024 NOSIG=
LFBD 201800Z AUTO 05003KT 010V080 9999 FEW016 04/M01 Q1024 NOSIG=
LFBD 201730Z AUTO VRB02KT CAVOK 06/M01 Q1024 NOSIG=
LFBD 201700Z AUTO 08004KT 030V100 CAVOK 08/M01 Q1024 NOSIG=